Time;durP1;ratioP1;P1;durP2;ratioP2;P2;SDS_P1;SDS_P2;PMS_P1;PMS_P2;Temp;Humidity;BMP_temperature;BMP_pressure;BME280_temperature;BME280_humidity;BME280_pressure;Samples;Min_cycle;Max_cycle;Signal;HPM_P1;HPM_P2
2022/09/25 00:02:08;;;;;;;25.60;16.60;;;;;;;11.29;61.64;98859.42;226442;1236;139733;-62
2022/09/25 00:07:11;;;;;;;23.10;15.80;;;;;;;11.25;61.67;98861.48;227469;1234;141076;-64
2022/09/25 00:12:14;;;;;;;25.30;16.40;;;;;;;11.19;61.98;98861.38;227375;1244;139150;-64
2022/09/25 00:17:17;;;;;;;25.50;17.60;;;;;;;11.11;61.70;98862.10;227552;1227;139278;-66
2022/09/25 00:22:23;;;;;;;25.80;17.00;;;;;;;11.04;61.99;98861.85;226440;1250;140271;-68
2022/09/25 00:27:26;;;;;;;29.10;18.00;;;;;;;10.98;61.88;98863.27;226239;1234;140672;-70
2022/09/25 00:32:29;;;;;;;28.80;17.60;;;;;;;10.94;62.00;98860.21;227196;1230;140150;-71
2022/09/25 00:37:34;;;;;;;25.40;16.80;;;;;;;10.98;61.80;98856.56;226190;1241;140087;-64
2022/09/25 00:42:37;;;;;;;27.30;16.80;;;;;;;11.02;61.83;98852.92;227367;1234;140028;-62
2022/09/25 00:48:09;;;;;;;27.00;17.10;;;;;;;11.00;61.46;98851.80;226321;1240;139439;-64
2022/09/25 00:53:37;;;;;;;26.50;16.60;;;;;;;10.96;61.38;98844.98;226240;1250;139634;-64
2022/09/25 00:58:41;;;;;;;26.00;16.90;;;;;;;10.93;61.85;98843.24;225971;1241;138990;-64
2022/09/25 01:03:45;;;;;;;27.10;17.00;;;;;;;10.89;61.80;98839.05;226161;1243;139229;-64
2022/09/25 01:08:48;;;;;;;26.10;17.80;;;;;;;10.85;61.87;98833.98;227329;1244;139390;-67
2022/09/25 01:13:54;;;;;;;26.20;17.50;;;;;;;10.79;62.09;98836.50;226210;1250;139660;-61
2022/09/25 01:19:12;;;;;;;25.30;16.60;;;;;;;10.76;62.08;98831.40;226025;1239;138921;-65
2022/09/25 01:24:24;;;;;;;28.00;17.10;;;;;;;10.73;62.23;98819.34;226166;1243;140068;-67
2022/09/25 01:29:35;;;;;;;25.10;16.60;;;;;;;10.70;62.18;98818.53;226260;1250;139083;-69
2022/09/25 01:34:55;;;;;;;26.50;16.10;;;;;;;10.70;62.15;98816.92;226152;1240;140864;-68
2022/09/25 01:40:32;;;;;;;25.10;16.50;;;;;;;10.73;62.14;98818.80;226516;1243;139449;-67
2022/09/25 01:45:58;;;;;;;26.20;17.30;;;;;;;10.71;61.95;98812.36;226441;1247;209726;-67
2022/09/25 01:51:07;;;;;;;25.30;17.40;;;;;;;10.69;62.16;98819.60;227247;1239;139880;-62
2022/09/25 01:56:19;;;;;;;29.20;16.50;;;;;;;10.67;62.23;98810.34;226218;1243;139612;-62
2022/09/25 02:01:28;;;;;;;27.30;17.10;;;;;;;10.65;62.18;98810.27;227490;1240;139652;-63
2022/09/25 02:06:32;;;;;;;27.80;16.80;;;;;;;10.63;62.45;98815.18;226252;1244;139340;-62
2022/09/25 02:11:41;;;;;;;24.50;17.30;;;;;;;10.61;62.19;98814.46;226307;1252;139609;-68
2022/09/25 02:16:48;;;;;;;23.80;16.80;;;;;;;10.60;62.56;98815.08;227226;1238;139962;-67
2022/09/25 02:22:04;;;;;;;25.90;17.10;;;;;;;10.60;62.74;98821.98;226381;1243;139112;-65
2022/09/25 02:27:07;;;;;;;31.50;17.60;;;;;;;10.65;62.96;98819.20;227407;1226;141143;-64
2022/09/25 02:32:16;;;;;;;27.90;17.40;;;;;;;10.76;63.18;98815.96;227382;1235;139718;-64
2022/09/25 02:37:19;;;;;;;28.50;17.40;;;;;;;10.85;62.99;98812.53;226152;1244;139708;-64
2022/09/25 02:42:54;;;;;;;26.00;16.90;;;;;;;10.89;63.17;98808.50;226344;1244;139805;-63
2022/09/25 02:48:31;;;;;;;23.90;16.30;;;;;;;10.91;63.09;98805.36;226377;1237;138640;-64
2022/09/25 02:53:40;;;;;;;28.90;17.30;;;;;;;10.87;62.85;98806.14;226664;1253;139913;-62
2022/09/25 02:58:49;;;;;;;26.40;16.50;;;;;;;10.84;62.54;98805.15;226323;1241;139684;-62
2022/09/25 03:03:56;;;;;;;26.00;17.00;;;;;;;10.82;62.79;98802.23;226367;1230;139711;-66
2022/09/25 03:09:01;;;;;;;24.10;16.80;;;;;;;10.82;63.21;98799.27;226202;1245;139430;-64
2022/09/25 03:14:04;;;;;;;29.40;17.40;;;;;;;10.80;63.01;98792.08;227187;1238;139320;-64
2022/09/25 03:19:07;;;;;;;26.60;17.00;;;;;;;10.86;63.19;98788.14;226076;1240;140001;-64
2022/09/25 03:24:10;;;;;;;30.00;17.70;;;;;;;10.95;63.41;98782.23;227396;1234;140260;-65
2022/09/25 03:29:16;;;;;;;27.30;17.80;;;;;;;11.00;63.33;98776.36;226139;1244;139376;-67
2022/09/25 03:34:20;;;;;;;27.80;17.90;;;;;;;11.03;63.25;98777.55;226269;1241;139087;-62
2022/09/25 03:39:23;;;;;;;28.60;17.60;;;;;;;11.05;63.44;98778.65;227247;1234;141444;-64
2022/09/25 03:44:26;;;;;;;29.70;17.70;;;;;;;11.06;63.55;98774.15;227215;1232;139570;-64
2022/09/25 03:49:28;;;;;;;26.90;17.10;;;;;;;11.07;63.53;98772.31;226214;1244;139064;-64
2022/09/25 03:54:31;;;;;;;25.20;17.30;;;;;;;11.05;63.46;98772.62;226104;1237;139554;-63
2022/09/25 03:59:34;;;;;;;31.00;17.50;;;;;;;11.03;63.69;98771.52;227301;1235;139249;-63
2022/09/25 04:04:37;;;;;;;28.30;16.60;;;;;;;11.03;63.60;98768.67;226068;1249;139870;-63
2022/09/25 04:09:40;;;;;;;26.50;16.70;;;;;;;11.09;63.70;98763.50;227286;1234;140107;-64
2022/09/25 04:14:44;;;;;;;31.40;16.70;;;;;;;11.17;63.67;98765.96;226191;1248;140462;-65
2022/09/25 04:19:48;;;;;;;24.20;17.00;;;;;;;11.23;63.63;98765.56;227290;1246;139285;-67
2022/09/25 04:24:51;;;;;;;27.90;16.60;;;;;;;11.24;63.72;98762.80;226324;1237;139233;-63
2022/09/25 04:29:54;;;;;;;25.30;15.90;;;;;;;11.25;63.82;98764.04;226249;1238;139274;-60
2022/09/25 04:34:57;;;;;;;24.80;16.60;;;;;;;11.21;63.33;98762.87;226160;1238;139174;-60
2022/09/25 04:40:00;;;;;;;25.10;16.10;;;;;;;11.17;63.72;98763.88;227079;1234;139899;-61
2022/09/25 04:45:03;;;;;;;25.80;17.10;;;;;;;11.12;63.54;98762.24;226259;1248;139220;-61
2022/09/25 04:50:07;;;;;;;24.20;16.90;;;;;;;11.08;63.73;98764.08;227214;1232;139334;-61
2022/09/25 04:55:10;;;;;;;25.00;16.90;;;;;;;11.32;65.76;98765.24;225982;1245;139050;-61
2022/09/25 05:00:17;;;;;;;24.30;15.70;;;;;;;11.82;64.59;98758.03;226113;1246;140390;-62
2022/09/25 05:05:20;;;;;;;23.20;16.70;;;;;;;11.81;63.53;98757.02;226020;1244;139600;-68
2022/09/25 05:10:26;;;;;;;23.00;16.40;;;;;;;11.73;63.50;98754.73;226220;1242;139934;-66
2022/09/25 05:15:31;;;;;;;28.00;17.10;;;;;;;11.67;63.83;98760.34;227214;1241;139259;-64
2022/09/25 05:20:35;;;;;;;25.00;17.00;;;;;;;11.62;63.26;98757.35;226342;1244;140277;-64
2022/09/25 05:25:37;;;;;;;25.50;16.70;;;;;;;11.57;63.70;98755.17;226067;1245;139980;-63
2022/09/25 05:30:42;;;;;;;28.90;16.60;;;;;;;11.54;63.94;98764.61;227373;1231;139268;-65
2022/09/25 05:35:45;;;;;;;23.10;15.80;;;;;;;11.52;64.15;98765.86;227514;1245;138839;-62
2022/09/25 05:40:48;;;;;;;26.00;18.00;;;;;;;11.54;64.29;98771.23;226348;1244;139189;-61
2022/09/25 05:45:53;;;;;;;21.10;15.80;;;;;;;11.66;64.38;98774.33;227275;1230;139869;-61
2022/09/25 05:50:57;;;;;;;20.80;16.20;;;;;;;11.78;64.26;98767.00;226097;1250;140596;-66
2022/09/25 05:56:02;;;;;;;25.70;17.30;;;;;;;11.89;64.47;98769.33;226319;1243;139538;-66
2022/09/25 06:01:05;;;;;;;26.70;16.70;;;;;;;11.97;64.59;98769.58;226555;1234;139049;-64
2022/09/25 06:06:09;;;;;;;23.90;17.20;;;;;;;12.05;64.67;98766.89;226106;1247;139903;-64
2022/09/25 06:11:12;;;;;;;21.90;15.90;;;;;;;12.10;64.31;98771.70;227327;1234;139509;-64
2022/09/25 06:16:18;;;;;;;28.30;18.00;;;;;;;12.16;64.51;98772.14;225979;1250;139734;-69
2022/09/25 06:21:21;;;;;;;26.60;18.20;;;;;;;12.24;64.60;98767.64;225986;1249;139172;-65
2022/09/25 06:26:24;;;;;;;31.40;19.70;;;;;;;12.36;64.88;98761.27;226004;1245;139282;-62
2022/09/25 06:31:27;;;;;;;25.00;19.20;;;;;;;12.53;64.94;98757.16;226400;1249;140057;-64
2022/09/25 06:36:32;;;;;;;26.30;18.50;;;;;;;12.72;64.99;98761.04;226438;1241;139906;-66
2022/09/25 06:41:35;;;;;;;25.00;19.50;;;;;;;12.87;64.95;98764.67;226709;1242;139573;-66
2022/09/25 06:46:38;;;;;;;27.20;19.30;;;;;;;13.01;64.61;98764.87;226222;1237;139532;-65
2022/09/25 06:51:41;;;;;;;27.40;19.10;;;;;;;13.14;64.73;98765.90;227314;1242;139525;-65
2022/09/25 06:56:48;;;;;;;27.30;18.50;;;;;;;13.23;64.48;98767.32;226319;1243;141889;-62
2022/09/25 07:01:51;;;;;;;21.70;15.00;;;;;;;13.30;64.35;98768.06;226452;1238;138926;-64
2022/09/25 07:06:57;;;;;;;33.60;21.60;;;;;;;13.60;65.73;98761.77;227312;1234;139312;-65
2022/09/25 07:12:00;;;;;;;25.90;17.60;;;;;;;13.83;64.61;98754.03;226508;1234;140095;-69
2022/09/25 07:17:03;;;;;;;24.10;17.80;;;;;;;13.92;64.06;98753.90;226534;1241;139384;-63
2022/09/25 07:22:06;;;;;;;26.40;18.00;;;;;;;13.98;63.90;98757.71;226212;1251;139126;-63
2022/09/25 07:27:09;;;;;;;25.20;19.40;;;;;;;14.03;63.82;98757.83;226328;1244;139747;-63
2022/09/25 07:32:12;;;;;;;25.80;19.10;;;;;;;14.10;63.81;98765.23;226381;1243;139349;-62
2022/09/25 07:37:15;;;;;;;29.30;18.80;;;;;;;14.15;63.52;98761.48;226490;1250;139855;-63
2022/09/25 07:42:18;;;;;;;24.30;18.10;;;;;;;14.19;63.40;98763.67;226096;1240;139001;-63
2022/09/25 07:47:21;;;;;;;24.90;18.60;;;;;;;14.26;63.41;98759.34;226193;1241;139038;-64
2022/09/25 07:52:24;;;;;;;26.40;18.50;;;;;;;14.32;63.44;98752.56;227391;1234;139495;-62
2022/09/25 07:57:27;;;;;;;22.10;17.60;;;;;;;14.39;63.49;98746.48;226464;1250;139751;-63
2022/09/25 08:02:30;;;;;;;27.70;15.80;;;;;;;14.45;63.36;98749.39;227496;1226;139077;-63
2022/09/25 08:07:33;;;;;;;21.90;16.10;;;;;;;14.53;63.25;98754.23;226350;1248;140508;-69
2022/09/25 08:12:36;;;;;;;21.50;15.50;;;;;;;14.65;63.29;98753.45;226098;1237;139346;-70
2022/09/25 08:17:40;;;;;;;21.90;15.40;;;;;;;14.76;63.17;98756.28;226614;1249;138922;-67
2022/09/25 08:22:42;;;;;;;19.30;11.90;;;;;;;14.84;63.17;98757.06;226312;1241;139439;-67
2022/09/25 08:27:45;;;;;;;17.20;11.50;;;;;;;14.96;62.79;98756.23;226324;1244;139251;-68
2022/09/25 08:32:49;;;;;;;12.70;10.10;;;;;;;15.01;62.28;98755.06;227161;1234;139701;-66
2022/09/25 08:37:52;;;;;;;10.50;8.30;;;;;;;15.07;62.04;98750.09;227315;1232;139173;-67
2022/09/25 08:42:56;;;;;;;15.40;8.90;;;;;;;15.11;61.75;98744.54;226000;1242;139403;-67
2022/09/25 08:53:25;;;;;;;15.40;10.00;;;;;;;15.13;61.99;98747.42;226385;1238;141975;-66
2022/09/25 08:58:30;;;;;;;16.80;12.20;;;;;;;15.11;62.28;98744.77;225889;1249;140263;-70
2022/09/25 09:03:44;;;;;;;17.90;11.90;;;;;;;15.15;62.45;98734.71;227161;1240;139866;-66
2022/09/25 09:09:13;;;;;;;15.90;11.00;;;;;;;15.23;62.55;98724.40;226198;1244;139962;-67
2022/09/25 09:14:19;;;;;;;15.10;9.80;;;;;;;15.29;62.89;98716.98;226085;1243;139712;-68
2022/09/25 09:19:22;;;;;;;16.10;10.60;;;;;;;15.31;62.91;98711.06;227145;1233;139814;-73
2022/09/25 09:24:52;;;;;;;14.20;9.00;;;;;;;15.45;63.47;98705.95;227209;1235;139720;-69
2022/09/25 09:30:22;;;;;;;15.80;12.30;;;;;;;15.48;63.06;98701.55;226077;1237;139759;-67
2022/09/25 09:35:51;;;;;;;20.10;12.90;;;;;;;15.41;63.05;98700.73;227431;1234;140829;-68
2022/09/25 09:41:29;;;;;;;17.80;12.90;;;;;;;15.33;63.02;98697.31;225955;1247;139724;-70
2022/09/25 09:46:56;;;;;;;16.00;10.70;;;;;;;15.25;63.12;98692.23;226055;1236;140027;-64
2022/09/25 09:52:10;;;;;;;12.10;9.10;;;;;;;15.22;63.07;98688.11;226183;1234;140132;-69
2022/09/25 09:57:25;;;;;;;13.20;8.80;;;;;;;15.19;63.07;98692.80;227289;1233;139851;-67
2022/09/25 10:02:49;;;;;;;14.80;10.00;;;;;;;15.15;63.17;98693.14;227386;1241;139444;-64
2022/09/25 10:07:53;;;;;;;16.00;10.00;;;;;;;15.12;63.23;98694.97;226274;1243;139290;-70
2022/09/25 10:12:58;;;;;;;14.00;9.80;;;;;;;15.10;63.45;98693.17;226391;1243;139414;-70
2022/09/25 10:18:08;;;;;;;13.00;9.70;;;;;;;15.08;63.54;98696.21;226388;1234;139289;-66
2022/09/25 10:23:32;;;;;;;12.80;9.30;;;;;;;15.06;63.43;98685.11;227404;1235;139232;-64
2022/09/25 10:28:35;;;;;;;14.60;9.10;;;;;;;15.05;63.65;98677.55;227346;1234;139679;-70
2022/09/25 10:33:38;;;;;;;12.30;7.90;;;;;;;15.10;63.83;98669.77;226374;1233;139436;-64
2022/09/25 10:38:48;;;;;;;12.30;7.90;;;;;;;15.20;63.70;98675.15;227369;1227;139591;-70
2022/09/25 10:44:01;;;;;;;11.10;8.20;;;;;;;15.28;63.74;98674.25;226313;1241;139057;-68
2022/09/25 10:54:35;;;;;;;9.10;6.90;;;;;;;15.36;63.38;98671.61;226531;1241;125300;-68
2022/09/25 10:59:50;;;;;;;10.30;8.10;;;;;;;15.39;63.34;98673.69;226242;1242;139773;-70
2022/09/25 11:04:55;;;;;;;12.90;8.00;;;;;;;15.43;63.35;98677.71;226119;1240;139216;-69
2022/09/25 11:09:58;;;;;;;11.10;8.50;;;;;;;15.43;63.32;98679.29;227358;1241;140631;-68
2022/09/25 11:15:07;;;;;;;10.60;8.30;;;;;;;15.43;63.35;98674.10;226250;1239;139125;-67
2022/09/25 11:20:28;;;;;;;12.60;8.40;;;;;;;15.48;63.43;98673.48;226453;1234;139310;-70
2022/09/25 11:25:47;;;;;;;9.70;7.60;;;;;;;15.60;63.66;98665.58;227291;1234;140230;-73
2022/09/25 11:31:21;;;;;;;10.70;8.00;;;;;;;15.72;63.53;98663.27;226254;1242;139177;-69
2022/09/25 11:36:30;;;;;;;9.50;7.30;;;;;;;15.86;63.47;98662.27;226295;1236;139265;-70
2022/09/25 11:41:42;;;;;;;12.20;7.80;;;;;;;15.91;63.22;98658.71;227136;1234;139227;-68
2022/09/25 11:47:10;;;;;;;11.90;7.40;;;;;;;15.95;63.09;98653.74;226070;1237;139104;-67
2022/09/25 11:52:36;;;;;;;10.20;7.90;;;;;;;15.99;63.19;98652.84;226081;1244;139636;-70
2022/09/25 11:57:55;;;;;;;11.90;8.00;;;;;;;16.03;63.45;98645.85;226153;1243;139227;-69
2022/09/25 12:03:19;;;;;;;10.00;8.40;;;;;;;16.09;63.38;98633.63;226388;1237;139469;-68
2022/09/25 12:08:25;;;;;;;12.30;8.80;;;;;;;16.11;63.20;98632.21;226509;1238;138990;-68
2022/09/25 12:13:40;;;;;;;11.10;8.10;;;;;;;16.20;63.50;98631.00;227356;1236;140611;-66
2022/09/25 12:19:01;;;;;;;12.00;9.10;;;;;;;16.30;63.76;98623.10;226228;1245;140227;-66
2022/09/25 12:24:16;;;;;;;15.20;9.30;;;;;;;16.40;63.49;98609.54;226332;1242;139606;-64
2022/09/25 12:29:24;;;;;;;11.70;8.60;;;;;;;16.47;63.26;98597.59;226179;1243;138866;-64
2022/09/25 12:34:33;;;;;;;10.90;8.80;;;;;;;16.51;63.38;98586.25;226411;1243;140060;-63
2022/09/25 12:39:43;;;;;;;11.70;7.60;;;;;;;16.55;63.10;98578.29;227395;1227;141519;-63
2022/09/25 12:45:00;;;;;;;10.40;7.90;;;;;;;16.59;62.87;98574.94;226257;1243;139255;-63
2022/09/25 12:50:15;;;;;;;9.10;7.30;;;;;;;16.63;62.86;98576.87;226202;1231;139174;-63
2022/09/25 12:55:25;;;;;;;10.70;7.90;;;;;;;16.67;62.75;98578.34;226124;1243;140225;-63
2022/09/25 13:00:31;;;;;;;12.20;9.00;;;;;;;16.69;62.35;98577.01;226171;1249;139121;-63
2022/09/25 13:05:49;;;;;;;11.80;8.40;;;;;;;16.69;62.42;98580.49;226429;1233;139647;-63
2022/09/25 13:11:01;;;;;;;13.20;8.90;;;;;;;16.68;62.43;98578.57;226313;1240;140053;-61
2022/09/25 13:16:04;;;;;;;11.70;8.20;;;;;;;16.75;62.32;98573.12;226430;1241;140247;-64
2022/09/25 13:21:24;;;;;;;12.00;8.40;;;;;;;16.79;62.19;98569.65;226276;1240;139372;-66
2022/09/25 13:26:29;;;;;;;10.20;8.10;;;;;;;16.84;62.13;98567.61;226272;1249;139094;-66
2022/09/25 13:31:35;;;;;;;12.20;8.90;;;;;;;16.85;61.99;98566.58;226193;1238;139723;-65
2022/09/25 13:36:52;;;;;;;12.40;8.20;;;;;;;16.86;61.94;98565.21;226303;1241;138952;-66
2022/09/25 13:41:55;;;;;;;12.70;7.70;;;;;;;16.86;61.58;98562.90;226163;1237;139119;-66
2022/09/25 13:47:20;;;;;;;10.10;7.50;;;;;;;16.86;61.56;98562.42;227260;1235;138622;-66
2022/09/25 13:52:35;;;;;;;15.20;8.50;;;;;;;16.82;61.56;98564.24;226232;1250;139426;-66
2022/09/25 13:57:57;;;;;;;12.00;8.70;;;;;;;16.74;61.53;98564.75;226016;1243;138994;-65
2022/09/25 14:03:01;;;;;;;12.30;8.40;;;;;;;16.67;61.59;98558.20;226360;1243;139166;-67
2022/09/25 14:08:14;;;;;;;11.10;8.10;;;;;;;16.60;61.42;98556.02;227417;1236;140003;-71
2022/09/25 14:13:24;;;;;;;11.50;8.50;;;;;;;16.54;61.89;98557.36;226065;1235;139767;-68
2022/09/25 14:18:42;;;;;;;11.50;8.30;;;;;;;16.52;61.52;98551.55;226225;1244;139875;-66
2022/09/25 14:23:51;;;;;;;11.60;8.90;;;;;;;16.53;61.92;98543.94;226149;1236;139952;-66
2022/09/25 14:28:56;;;;;;;13.20;8.40;;;;;;;16.53;61.94;98548.44;226168;1236;139707;-66
2022/09/25 14:34:40;;;;;;;11.50;7.90;;;;;;;16.52;61.99;98538.89;226056;1238;139321;-68
2022/09/25 14:40:01;;;;;;;14.70;10.30;;;;;;;16.47;61.91;98534.30;225911;1238;139025;-65
2022/09/25 14:45:33;;;;;;;15.20;8.90;;;;;;;16.42;62.21;98526.07;227226;1233;139582;-65
2022/09/25 14:50:44;;;;;;;17.90;9.10;;;;;;;16.36;62.40;98529.15;226346;1241;139284;-66
2022/09/25 14:55:51;;;;;;;12.60;8.70;;;;;;;16.30;62.29;98523.05;227171;1231;139327;-71
2022/09/25 15:01:00;;;;;;;13.30;8.00;;;;;;;16.26;62.65;98515.94;227210;1242;138796;-66
2022/09/25 15:06:03;;;;;;;13.60;8.40;;;;;;;16.27;62.88;98514.23;226254;1241;140006;-67
2022/09/25 15:11:15;;;;;;;14.40;8.50;;;;;;;16.30;63.00;98521.45;226129;1243;139427;-67
2022/09/25 15:21:46;;;;;;;16.10;9.10;;;;;;;16.32;63.06;98513.48;226146;1242;139597;-68
2022/09/25 15:27:01;;;;;;;13.10;9.30;;;;;;;16.29;63.06;98504.68;226182;1243;138706;-65
2022/09/25 15:32:05;;;;;;;11.40;9.00;;;;;;;16.24;63.16;98502.08;227307;1235;139268;-65
2022/09/25 15:37:28;;;;;;;14.60;9.70;;;;;;;16.19;63.03;98506.38;227439;1233;140456;-65
2022/09/25 15:42:31;;;;;;;15.60;9.00;;;;;;;16.12;63.18;98498.23;227481;1238;139869;-67
2022/09/25 15:47:34;;;;;;;14.10;9.90;;;;;;;16.07;63.13;98502.15;226347;1246;139138;-66
2022/09/25 15:52:38;;;;;;;13.80;10.10;;;;;;;16.05;63.33;98502.08;227277;1241;140041;-67
2022/09/25 15:57:41;;;;;;;20.20;11.00;;;;;;;16.09;63.62;98500.00;226153;1245;139683;-67
2022/09/25 16:08:35;;;;;;;18.50;11.30;;;;;;;16.12;63.54;98501.34;226251;1250;139061;-67
2022/09/25 16:13:42;;;;;;;16.80;10.70;;;;;;;16.10;63.47;98488.27;226204;1236;139456;-71
2022/09/25 16:18:45;;;;;;;13.20;10.20;;;;;;;16.06;63.50;98480.73;226397;1244;139738;-69
2022/09/25 16:24:06;;;;;;;15.80;11.70;;;;;;;16.01;63.58;98477.84;226257;1250;139231;-67
2022/09/25 16:29:10;;;;;;;21.00;11.40;;;;;;;15.94;63.58;98474.21;227200;1231;140278;-67
2022/09/25 16:34:37;;;;;;;17.40;11.20;;;;;;;15.91;63.77;98474.14;225980;1243;139906;-70
2022/09/25 16:39:42;;;;;;;15.20;11.10;;;;;;;15.89;64.25;98474.61;227176;1228;139568;-69
2022/09/25 16:44:45;;;;;;;19.00;12.20;;;;;;;15.89;64.21;98478.83;226105;1241;140132;-67
2022/09/25 16:49:49;;;;;;;18.20;12.10;;;;;;;15.87;64.08;98479.48;226021;1236;139373;-70
2022/09/25 16:54:55;;;;;;;19.00;11.40;;;;;;;15.85;64.45;98486.42;226130;1236;139755;-71
2022/09/25 16:59:58;;;;;;;16.50;11.00;;;;;;;15.82;64.21;98485.52;226450;1245;140346;-67
2022/09/25 17:05:09;;;;;;;17.80;12.10;;;;;;;15.76;64.50;98485.86;226134;1244;140415;-66
2022/09/25 17:10:15;;;;;;;21.30;11.90;;;;;;;15.72;64.46;98489.96;226276;1228;139145;-68
2022/09/25 17:15:26;;;;;;;20.80;11.70;;;;;;;15.73;64.60;98491.12;226103;1242;140156;-69
2022/09/25 17:20:30;;;;;;;18.90;11.30;;;;;;;15.76;64.57;98492.33;227239;1233;140066;-66
2022/09/25 17:25:44;;;;;;;25.60;12.20;;;;;;;15.76;64.70;98492.30;226345;1241;139568;-67
2022/09/25 17:30:47;;;;;;;18.00;12.80;;;;;;;15.72;64.52;98501.80;227206;1232;139583;-69
2022/09/25 17:36:02;;;;;;;18.30;12.40;;;;;;;15.67;64.65;98504.78;226472;1244;139468;-71
2022/09/25 17:41:32;;;;;;;23.90;13.10;;;;;;;15.64;64.75;98503.90;226191;1244;139312;-69
2022/09/25 17:46:36;;;;;;;22.30;12.20;;;;;;;15.63;64.83;98491.14;227204;1234;140766;-65
2022/09/25 17:51:39;;;;;;;21.70;12.90;;;;;;;15.63;64.89;98486.52;226079;1236;140057;-65
2022/09/25 17:56:44;;;;;;;22.80;12.90;;;;;;;15.68;65.14;98491.59;227230;1228;140203;-67
2022/09/25 18:01:47;;;;;;;22.30;13.50;;;;;;;15.78;65.26;98490.67;226449;1239;140894;-65
2022/09/25 18:06:50;;;;;;;21.90;13.00;;;;;;;15.76;64.91;98483.52;226242;1238;139769;-69
2022/09/25 18:11:53;;;;;;;25.00;13.70;;;;;;;15.71;65.08;98475.62;226465;1244;138971;-67
2022/09/25 18:16:56;;;;;;;18.60;14.40;;;;;;;15.65;65.02;98476.84;226179;1241;139128;-66
2022/09/25 18:22:20;;;;;;;19.70;13.70;;;;;;;15.58;65.20;98477.05;226089;1244;139645;-66
2022/09/25 18:27:26;;;;;;;23.20;13.80;;;;;;;15.55;65.20;98479.53;227249;1242;140107;-66
2022/09/25 18:32:30;;;;;;;22.60;14.70;;;;;;;15.54;65.37;98477.63;226280;1241;140085;-66
2022/09/25 18:37:33;;;;;;;26.10;15.70;;;;;;;15.55;65.63;98474.73;226144;1240;138880;-66
2022/09/25 18:42:37;;;;;;;20.00;14.50;;;;;;;15.53;65.56;98482.45;226214;1243;138533;-66
2022/09/25 18:47:41;;;;;;;22.00;14.90;;;;;;;15.50;65.59;98485.23;226249;1240;139676;-64
2022/09/25 18:52:44;;;;;;;25.00;15.30;;;;;;;15.46;65.77;98474.80;227378;1244;139154;-65
2022/09/25 18:57:47;;;;;;;20.60;12.00;;;;;;;15.41;65.83;98475.42;226122;1242;139251;-67
2022/09/25 19:02:50;;;;;;;21.30;13.80;;;;;;;15.46;65.98;98478.96;227153;1237;140648;-64
2022/09/25 19:07:53;;;;;;;28.20;14.30;;;;;;;15.48;65.74;98478.20;226097;1240;140725;-69
2022/09/25 19:12:56;;;;;;;22.50;15.70;;;;;;;15.61;66.81;98480.39;226334;1244;139792;-67
2022/09/25 19:17:59;;;;;;;21.90;14.80;;;;;;;15.76;66.09;98479.40;227541;1242;140208;-68
2022/09/25 19:23:02;;;;;;;21.50;15.10;;;;;;;15.68;65.55;98479.59;226283;1234;139541;-63
2022/09/25 19:28:05;;;;;;;25.90;15.10;;;;;;;15.55;65.53;98475.25;226387;1238;139754;-63
2022/09/25 19:33:09;;;;;;;21.30;14.40;;;;;;;15.47;65.61;98472.95;226542;1251;139444;-63
2022/09/25 19:38:12;;;;;;;20.10;14.60;;;;;;;15.42;65.43;98475.90;227330;1248;141371;-63
2022/09/25 19:43:15;;;;;;;21.60;14.40;;;;;;;15.38;65.53;98475.14;226445;1242;139589;-63
2022/09/25 19:48:19;;;;;;;23.60;14.90;;;;;;;15.37;65.76;98470.23;226279;1244;138786;-65
2022/09/25 19:53:22;;;;;;;22.50;15.20;;;;;;;15.35;65.66;98467.55;227337;1232;139363;-64
2022/09/25 19:58:25;;;;;;;23.30;15.20;;;;;;;15.30;65.82;98470.30;226128;1240;139376;-65
2022/09/25 20:03:28;;;;;;;24.20;16.00;;;;;;;15.25;65.80;98467.76;226519;1241;139354;-65
2022/09/25 20:08:32;;;;;;;26.00;16.80;;;;;;;15.19;65.95;98472.96;226264;1242;139686;-64
2022/09/25 20:13:35;;;;;;;25.60;16.90;;;;;;;15.17;65.97;98475.13;226091;1250;139986;-64
2022/09/25 20:18:38;;;;;;;25.90;16.80;;;;;;;15.18;66.18;98471.81;226360;1244;140849;-64
2022/09/25 20:23:41;;;;;;;24.60;17.40;;;;;;;15.18;66.26;98462.15;226363;1239;138913;-65
2022/09/25 20:28:45;;;;;;;27.50;18.70;;;;;;;15.16;66.38;98455.58;227134;1235;139618;-64
2022/09/25 20:33:48;;;;;;;30.40;20.90;;;;;;;15.13;66.28;98452.61;226053;1244;140274;-63
2022/09/25 20:38:52;;;;;;;30.20;21.10;;;;;;;15.15;66.64;98445.08;226110;1241;140169;-63
2022/09/25 20:43:56;;;;;;;28.80;19.40;;;;;;;15.21;66.68;98437.64;225971;1249;139582;-63
2022/09/25 20:49:00;;;;;;;26.40;19.50;;;;;;;15.19;66.25;98434.73;227056;1227;141172;-63
2022/09/25 20:54:06;;;;;;;28.20;19.60;;;;;;;15.15;66.23;98431.52;226176;1245;140355;-63
2022/09/25 20:59:10;;;;;;;28.60;19.50;;;;;;;15.10;66.31;98429.25;226025;1245;139316;-63
2022/09/25 21:04:16;;;;;;;29.30;20.10;;;;;;;15.04;66.20;98423.06;226103;1253;139833;-63
2022/09/25 21:09:22;;;;;;;26.60;19.00;;;;;;;14.97;66.24;98422.77;226068;1248;138937;-63
2022/09/25 21:14:27;;;;;;;26.50;18.90;;;;;;;14.89;66.34;98428.48;226024;1244;140080;-63
2022/09/25 21:19:30;;;;;;;25.30;18.50;;;;;;;14.82;66.31;98423.55;226012;1252;139117;-62
2022/09/25 21:24:34;;;;;;;26.90;18.20;;;;;;;14.78;66.18;98420.15;226287;1241;140063;-64
2022/09/25 21:29:37;;;;;;;24.50;18.50;;;;;;;14.76;66.39;98427.92;227250;1240;139393;-63
2022/09/25 21:34:40;;;;;;;23.10;18.90;;;;;;;14.71;66.29;98426.88;226431;1241;139886;-64
2022/09/25 21:39:43;;;;;;;25.70;18.90;;;;;;;14.68;66.15;98423.28;227314;1234;138866;-65
2022/09/25 21:44:46;;;;;;;27.20;19.40;;;;;;;14.61;66.30;98415.14;227416;1241;140569;-65
2022/09/25 21:49:49;;;;;;;25.50;18.50;;;;;;;14.52;66.30;98416.23;226194;1244;140146;-66
2022/09/25 21:54:53;;;;;;;25.10;17.80;;;;;;;14.43;66.20;98414.55;226292;1245;139353;-63
2022/09/25 21:59:56;;;;;;;26.40;18.40;;;;;;;14.35;66.14;98408.08;226148;1235;140683;-63
2022/09/25 22:05:00;;;;;;;24.30;18.90;;;;;;;14.30;66.15;98408.67;226688;1252;139395;-63
2022/09/25 22:10:05;;;;;;;28.60;19.10;;;;;;;14.25;66.12;98406.11;226332;1249;139209;-65
2022/09/25 22:15:09;;;;;;;28.70;19.30;;;;;;;14.16;66.16;98403.29;227138;1234;139781;-64
2022/09/25 22:20:12;;;;;;;27.10;19.20;;;;;;;14.07;66.20;98403.05;227220;1237;139415;-65
2022/09/25 22:25:15;;;;;;;31.30;20.10;;;;;;;14.02;66.44;98398.27;226464;1241;140073;-62
2022/09/25 22:30:18;;;;;;;24.90;18.10;;;;;;;14.00;66.52;98399.61;227534;1234;139550;-63
2022/09/25 22:35:21;;;;;;;29.30;19.40;;;;;;;14.01;66.61;98396.61;226188;1244;141819;-62
2022/09/25 22:40:24;;;;;;;28.50;17.90;;;;;;;14.04;66.82;98393.34;226068;1243;139348;-63
2022/09/25 22:45:28;;;;;;;27.20;18.40;;;;;;;14.04;66.89;98383.34;226630;1241;140500;-63
2022/09/25 22:50:30;;;;;;;24.60;19.50;;;;;;;14.03;66.99;98386.45;226407;1235;139773;-63
2022/09/25 22:55:33;;;;;;;29.90;18.40;;;;;;;14.02;67.03;98382.63;226087;1245;139118;-63
2022/09/25 23:00:41;;;;;;;25.50;19.50;;;;;;;14.01;67.07;98381.67;226430;1237;138821;-64
2022/09/25 23:05:45;;;;;;;25.00;17.80;;;;;;;13.97;66.86;98377.50;226077;1234;139530;-64
2022/09/25 23:10:49;;;;;;;26.20;18.00;;;;;;;13.93;66.79;98371.62;224482;1233;139962;-63
2022/09/25 23:16:11;;;;;;;27.50;17.90;;;;;;;13.89;66.82;98368.58;224137;1229;139702;-65
2022/09/25 23:21:15;;;;;;;23.40;18.40;;;;;;;13.83;66.74;98369.42;224497;1237;139390;-64
2022/09/25 23:26:19;;;;;;;25.90;19.60;;;;;;;13.77;66.65;98363.71;224746;1234;139405;-63
2022/09/25 23:31:24;;;;;;;26.30;19.50;;;;;;;13.72;66.74;98366.66;224734;1234;140199;-63